sensor_id;sensor_type;location;lat;lon;timestamp;P1;durP1;ratioP1;P2;durP2;ratioP2
74677;SDS011;67324;56.326;43.982;2023-06-26T10:07:46;6.82;;;3.95;;
74677;SDS011;67324;56.326;43.982;2023-06-26T10:10:13;11.13;;;3.90;;
74677;SDS011;67324;56.326;43.982;2023-06-26T10:12:40;17.60;;;4.38;;
74677;SDS011;67324;56.326;43.982;2023-06-26T10:15:08;12.88;;;4.47;;
74677;SDS011;67324;56.326;43.982;2023-06-26T10:17:37;25.10;;;4.63;;
74677;SDS011;67324;56.326;43.982;2023-06-26T10:20:06;18.00;;;5.07;;
74677;SDS011;67324;56.326;43.982;2023-06-26T10:22:44;15.73;;;5.10;;
74677;SDS011;67324;56.326;43.982;2023-06-26T10:25:12;19.83;;;4.70;;
74677;SDS011;67324;56.326;43.982;2023-06-26T10:27:47;16.48;;;5.00;;
74677;SDS011;67324;56.326;43.982;2023-06-26T10:30:19;18.47;;;5.00;;
74677;SDS011;67324;56.326;43.982;2023-06-26T10:32:48;13.93;;;4.47;;
74677;SDS011;67324;56.326;43.982;2023-06-26T10:35:14;16.75;;;4.75;;
74677;SDS011;67324;56.326;43.982;2023-06-26T10:37:44;11.85;;;4.07;;
74677;SDS011;67324;56.326;43.982;2023-06-26T10:40:12;10.43;;;4.13;;
74677;SDS011;67324;56.326;43.982;2023-06-26T10:42:39;15.18;;;4.80;;
74677;SDS011;67324;56.326;43.982;2023-06-26T10:45:09;12.73;;;4.47;;
74677;SDS011;67324;56.326;43.982;2023-06-26T10:47:39;15.85;;;5.03;;
74677;SDS011;67324;56.326;43.982;2023-06-26T10:50:16;14.73;;;4.63;;
74677;SDS011;67324;56.326;43.982;2023-06-26T10:53:23;11.77;;;5.20;;
74677;SDS011;67324;56.326;43.982;2023-06-26T10:55:56;10.93;;;4.80;;
74677;SDS011;67324;56.326;43.982;2023-06-26T11:06:27;14.90;;;4.93;;
74677;SDS011;67324;56.326;43.982;2023-06-26T11:08:59;11.13;;;4.47;;
74677;SDS011;67324;56.326;43.982;2023-06-26T11:14:54;11.40;;;4.80;;
74677;SDS011;67324;56.326;43.982;2023-06-26T11:17:20;10.10;;;4.00;;
74677;SDS011;67324;56.326;43.982;2023-06-26T11:19:47;10.82;;;4.55;;
74677;SDS011;67324;56.326;43.982;2023-06-26T11:22:13;9.98;;;4.30;;
74677;SDS011;67324;56.326;43.982;2023-06-26T11:24:40;11.18;;;4.28;;
74677;SDS011;67324;56.326;43.982;2023-06-26T11:27:08;9.02;;;4.35;;
74677;SDS011;67324;56.326;43.982;2023-06-26T11:29:33;9.27;;;4.75;;
74677;SDS011;67324;56.326;43.982;2023-06-26T11:32:00;12.18;;;4.55;;
74677;SDS011;67324;56.326;43.982;2023-06-26T11:34:29;10.90;;;4.53;;
74677;SDS011;67324;56.326;43.982;2023-06-26T11:36:56;8.45;;;4.35;;
74677;SDS011;67324;56.326;43.982;2023-06-26T11:39:22;12.43;;;4.65;;
74677;SDS011;67324;56.326;43.982;2023-06-26T11:41:48;10.10;;;4.63;;
74677;SDS011;67324;56.326;43.982;2023-06-26T11:44:14;9.85;;;4.05;;
74677;SDS011;67324;56.326;43.982;2023-06-26T11:46:45;9.27;;;4.85;;
74677;SDS011;67324;56.326;43.982;2023-06-26T11:49:11;10.25;;;4.55;;
74677;SDS011;67324;56.326;43.982;2023-06-26T11:51:37;9.43;;;4.57;;
74677;SDS011;67324;56.326;43.982;2023-06-26T11:54:03;9.13;;;4.85;;
74677;SDS011;67324;56.326;43.982;2023-06-26T11:56:29;9.82;;;5.15;;
74677;SDS011;67324;56.326;43.982;2023-06-26T11:59:03;14.20;;;5.18;;
74677;SDS011;67324;56.326;43.982;2023-06-26T12:01:38;13.35;;;5.50;;
74677;SDS011;67324;56.326;43.982;2023-06-26T12:04:24;11.60;;;4.95;;
74677;SDS011;67324;56.326;43.982;2023-06-26T12:06:51;14.43;;;5.35;;
74677;SDS011;67324;56.326;43.982;2023-06-26T12:09:22;11.95;;;5.45;;
74677;SDS011;67324;56.326;43.982;2023-06-26T12:11:51;13.75;;;5.45;;
74677;SDS011;67324;56.326;43.982;2023-06-26T12:14:19;14.93;;;6.78;;
74677;SDS011;67324;56.326;43.982;2023-06-26T12:16:47;15.00;;;6.28;;
74677;SDS011;67324;56.326;43.982;2023-06-26T12:19:13;12.70;;;6.03;;
74677;SDS011;67324;56.326;43.982;2023-06-26T12:24:09;13.38;;;6.15;;
74677;SDS011;67324;56.326;43.982;2023-06-26T12:26:37;16.15;;;6.28;;
74677;SDS011;67324;56.326;43.982;2023-06-26T12:29:07;13.00;;;5.97;;
74677;SDS011;67324;56.326;43.982;2023-06-26T12:31:39;11.25;;;5.45;;
74677;SDS011;67324;56.326;43.982;2023-06-26T12:34:13;12.43;;;5.70;;
74677;SDS011;67324;56.326;43.982;2023-06-26T12:36:43;11.73;;;5.70;;
74677;SDS011;67324;56.326;43.982;2023-06-26T12:39:17;14.75;;;6.25;;
74677;SDS011;67324;56.326;43.982;2023-06-26T12:41:45;17.58;;;6.65;;
74677;SDS011;67324;56.326;43.982;2023-06-26T12:44:21;14.25;;;6.70;;
74677;SDS011;67324;56.326;43.982;2023-06-26T12:47:13;17.48;;;6.80;;
74677;SDS011;67324;56.326;43.982;2023-06-26T12:49:59;15.35;;;6.45;;
74677;SDS011;67324;56.326;43.982;2023-06-26T12:52:31;12.70;;;6.43;;
74677;SDS011;67324;56.326;43.982;2023-06-26T12:54:57;21.83;;;8.60;;
74677;SDS011;67324;56.326;43.982;2023-06-26T12:57:23;20.08;;;8.13;;
74677;SDS011;67324;56.326;43.982;2023-06-26T12:59:49;19.85;;;8.25;;
74677;SDS011;67324;56.326;43.982;2023-06-26T13:02:15;21.88;;;9.20;;
74677;SDS011;67324;56.326;43.982;2023-06-26T13:04:41;18.38;;;8.10;;
74677;SDS011;67324;56.326;43.982;2023-06-26T13:07:10;23.38;;;9.07;;
74677;SDS011;67324;56.326;43.982;2023-06-26T13:09:37;19.27;;;8.90;;
74677;SDS011;67324;56.326;43.982;2023-06-26T13:12:04;22.33;;;9.40;;
74677;SDS011;67324;56.326;43.982;2023-06-26T13:14:31;20.15;;;9.75;;
74677;SDS011;67324;56.326;43.982;2023-06-26T13:16:58;22.67;;;9.93;;
74677;SDS011;67324;56.326;43.982;2023-06-26T13:19:26;21.80;;;9.45;;
74677;SDS011;67324;56.326;43.982;2023-06-26T13:21:51;21.15;;;8.77;;
74677;SDS011;67324;56.326;43.982;2023-06-26T13:24:17;21.17;;;9.43;;
74677;SDS011;67324;56.326;43.982;2023-06-26T13:26:43;19.33;;;9.43;;
74677;SDS011;67324;56.326;43.982;2023-06-26T13:29:09;21.65;;;8.77;;
74677;SDS011;67324;56.326;43.982;2023-06-26T13:31:35;26.77;;;9.82;;
74677;SDS011;67324;56.326;43.982;2023-06-26T13:34:02;24.73;;;9.27;;
74677;SDS011;67324;56.326;43.982;2023-06-26T13:36:29;24.33;;;9.77;;
74677;SDS011;67324;56.326;43.982;2023-06-26T13:38:55;23.77;;;9.90;;
74677;SDS011;67324;56.326;43.982;2023-06-26T13:41:24;22.23;;;9.20;;
74677;SDS011;67324;56.326;43.982;2023-06-26T13:43:51;23.05;;;9.27;;
74677;SDS011;67324;56.326;43.982;2023-06-26T13:46:17;23.27;;;9.50;;
74677;SDS011;67324;56.326;43.982;2023-06-26T13:48:46;27.27;;;10.00;;
74677;SDS011;67324;56.326;43.982;2023-06-26T13:51:12;22.45;;;10.10;;
74677;SDS011;67324;56.326;43.982;2023-06-26T13:53:38;25.85;;;10.68;;
74677;SDS011;67324;56.326;43.982;2023-06-26T13:56:04;24.83;;;10.25;;
74677;SDS011;67324;56.326;43.982;2023-06-26T13:58:30;22.17;;;9.55;;
74677;SDS011;67324;56.326;43.982;2023-06-26T14:00:57;20.88;;;9.40;;
74677;SDS011;67324;56.326;43.982;2023-06-26T14:03:24;23.15;;;9.88;;
74677;SDS011;67324;56.326;43.982;2023-06-26T14:05:51;21.20;;;10.10;;
74677;SDS011;67324;56.326;43.982;2023-06-26T14:08:17;23.88;;;10.40;;
74677;SDS011;67324;56.326;43.982;2023-06-26T14:10:43;26.35;;;10.90;;
74677;SDS011;67324;56.326;43.982;2023-06-26T14:13:09;22.42;;;10.65;;
74677;SDS011;67324;56.326;43.982;2023-06-26T14:15:37;26.90;;;11.10;;
74677;SDS011;67324;56.326;43.982;2023-06-26T14:18:04;24.13;;;9.95;;
74677;SDS011;67324;56.326;43.982;2023-06-26T14:20:31;24.48;;;11.20;;
74677;SDS011;67324;56.326;43.982;2023-06-26T14:22:58;25.88;;;10.75;;
74677;SDS011;67324;56.326;43.982;2023-06-26T14:25:24;23.98;;;10.13;;
74677;SDS011;67324;56.326;43.982;2023-06-26T14:27:49;26.02;;;10.50;;
74677;SDS011;67324;56.326;43.982;2023-06-26T14:30:15;26.98;;;10.30;;
74677;SDS011;67324;56.326;43.982;2023-06-26T14:32:41;31.70;;;11.07;;
74677;SDS011;67324;56.326;43.982;2023-06-26T14:35:07;23.20;;;10.85;;
74677;SDS011;67324;56.326;43.982;2023-06-26T14:37:33;24.15;;;10.93;;
74677;SDS011;67324;56.326;43.982;2023-06-26T14:40:01;25.63;;;10.70;;
74677;SDS011;67324;56.326;43.982;2023-06-26T14:42:28;25.17;;;10.90;;
74677;SDS011;67324;56.326;43.982;2023-06-26T14:44:54;24.40;;;9.88;;
74677;SDS011;67324;56.326;43.982;2023-06-26T14:47:20;25.15;;;11.05;;
74677;SDS011;67324;56.326;43.982;2023-06-26T14:49:46;28.80;;;11.00;;
74677;SDS011;67324;56.326;43.982;2023-06-26T14:52:12;22.48;;;10.15;;
74677;SDS011;67324;56.326;43.982;2023-06-26T14:54:37;25.25;;;10.55;;
74677;SDS011;67324;56.326;43.982;2023-06-26T14:57:05;26.30;;;10.80;;
74677;SDS011;67324;56.326;43.982;2023-06-26T14:59:31;23.92;;;10.50;;
74677;SDS011;67324;56.326;43.982;2023-06-26T15:01:57;25.95;;;10.02;;
74677;SDS011;67324;56.326;43.982;2023-06-26T15:04:23;28.90;;;10.65;;
74677;SDS011;67324;56.326;43.982;2023-06-26T15:06:49;22.52;;;10.48;;
74677;SDS011;67324;56.326;43.982;2023-06-26T15:09:15;23.77;;;10.07;;
74677;SDS011;67324;56.326;43.982;2023-06-26T15:11:40;23.17;;;10.48;;
74677;SDS011;67324;56.326;43.982;2023-06-26T15:14:06;27.52;;;11.27;;
74677;SDS011;67324;56.326;43.982;2023-06-26T15:16:32;25.73;;;10.65;;
74677;SDS011;67324;56.326;43.982;2023-06-26T15:18:58;22.10;;;10.25;;
74677;SDS011;67324;56.326;43.982;2023-06-26T15:21:24;24.83;;;10.80;;
74677;SDS011;67324;56.326;43.982;2023-06-26T15:23:50;24.52;;;10.60;;
74677;SDS011;67324;56.326;43.982;2023-06-26T15:26:16;25.80;;;11.25;;
74677;SDS011;67324;56.326;43.982;2023-06-26T15:28:42;23.60;;;10.25;;
74677;SDS011;67324;56.326;43.982;2023-06-26T15:31:08;25.50;;;11.13;;
74677;SDS011;67324;56.326;43.982;2023-06-26T15:33:33;25.73;;;10.98;;
74677;SDS011;67324;56.326;43.982;2023-06-26T15:35:59;23.08;;;10.50;;
74677;SDS011;67324;56.326;43.982;2023-06-26T15:38:28;22.30;;;10.65;;
74677;SDS011;67324;56.326;43.982;2023-06-26T15:40:54;23.63;;;10.20;;
74677;SDS011;67324;56.326;43.982;2023-06-26T15:43:20;24.52;;;9.93;;
74677;SDS011;67324;56.326;43.982;2023-06-26T15:45:46;24.52;;;9.73;;
74677;SDS011;67324;56.326;43.982;2023-06-26T15:48:11;24.80;;;9.90;;
74677;SDS011;67324;56.326;43.982;2023-06-26T15:50:37;22.67;;;9.63;;
74677;SDS011;67324;56.326;43.982;2023-06-26T15:53:04;19.27;;;9.07;;
74677;SDS011;67324;56.326;43.982;2023-06-26T15:55:30;25.92;;;10.55;;
74677;SDS011;67324;56.326;43.982;2023-06-26T15:57:56;22.30;;;9.60;;
74677;SDS011;67324;56.326;43.982;2023-06-26T16:00:22;19.20;;;9.20;;
74677;SDS011;67324;56.326;43.982;2023-06-26T16:02:48;16.45;;;8.60;;
74677;SDS011;67324;56.326;43.982;2023-06-26T16:05:14;20.13;;;9.23;;
74677;SDS011;67324;56.326;43.982;2023-06-26T16:07:40;19.88;;;9.30;;
74677;SDS011;67324;56.326;43.982;2023-06-26T16:10:24;22.67;;;9.45;;
74677;SDS011;67324;56.326;43.982;2023-06-26T16:12:52;18.88;;;9.15;;
74677;SDS011;67324;56.326;43.982;2023-06-26T16:15:17;20.40;;;9.43;;
74677;SDS011;67324;56.326;43.982;2023-06-26T16:17:43;19.10;;;8.25;;
74677;SDS011;67324;56.326;43.982;2023-06-26T16:20:09;16.67;;;8.18;;
74677;SDS011;67324;56.326;43.982;2023-06-26T16:22:35;19.70;;;8.48;;
74677;SDS011;67324;56.326;43.982;2023-06-26T16:25:01;17.05;;;7.70;;
74677;SDS011;67324;56.326;43.982;2023-06-26T16:27:28;14.73;;;7.32;;
74677;SDS011;67324;56.326;43.982;2023-06-26T16:29:54;15.35;;;7.55;;
74677;SDS011;67324;56.326;43.982;2023-06-26T16:32:20;15.02;;;7.75;;
74677;SDS011;67324;56.326;43.982;2023-06-26T16:34:45;16.48;;;7.65;;
74677;SDS011;67324;56.326;43.982;2023-06-26T16:37:11;15.73;;;7.38;;
74677;SDS011;67324;56.326;43.982;2023-06-26T16:39:37;14.70;;;7.20;;
74677;SDS011;67324;56.326;43.982;2023-06-26T16:42:04;14.90;;;7.90;;
74677;SDS011;67324;56.326;43.982;2023-06-26T16:44:30;17.13;;;7.38;;
74677;SDS011;67324;56.326;43.982;2023-06-26T16:46:56;15.00;;;7.70;;
74677;SDS011;67324;56.326;43.982;2023-06-26T16:49:24;15.60;;;7.13;;
74677;SDS011;67324;56.326;43.982;2023-06-26T16:51:50;12.30;;;6.90;;
74677;SDS011;67324;56.326;43.982;2023-06-26T16:54:18;14.73;;;6.80;;
74677;SDS011;67324;56.326;43.982;2023-06-26T16:56:44;15.95;;;7.45;;
74677;SDS011;67324;56.326;43.982;2023-06-26T16:59:10;12.50;;;7.03;;
74677;SDS011;67324;56.326;43.982;2023-06-26T17:01:35;14.85;;;7.35;;
74677;SDS011;67324;56.326;43.982;2023-06-26T17:04:01;12.27;;;6.43;;
74677;SDS011;67324;56.326;43.982;2023-06-26T17:06:27;12.60;;;6.35;;
74677;SDS011;67324;56.326;43.982;2023-06-26T17:08:53;11.88;;;6.15;;
74677;SDS011;67324;56.326;43.982;2023-06-26T17:11:18;14.55;;;6.50;;
74677;SDS011;67324;56.326;43.982;2023-06-26T17:13:44;10.43;;;5.85;;
74677;SDS011;67324;56.326;43.982;2023-06-26T17:16:11;10.65;;;5.55;;
74677;SDS011;67324;56.326;43.982;2023-06-26T17:18:37;14.98;;;6.20;;
74677;SDS011;67324;56.326;43.982;2023-06-26T17:21:02;11.45;;;6.43;;
74677;SDS011;67324;56.326;43.982;2023-06-26T17:23:28;13.60;;;5.95;;
74677;SDS011;67324;56.326;43.982;2023-06-26T17:25:54;11.48;;;6.00;;
74677;SDS011;67324;56.326;43.982;2023-06-26T17:28:22;11.85;;;5.72;;
74677;SDS011;67324;56.326;43.982;2023-06-26T17:30:48;9.30;;;5.63;;
74677;SDS011;67324;56.326;43.982;2023-06-26T17:33:14;12.90;;;5.93;;
74677;SDS011;67324;56.326;43.982;2023-06-26T17:35:40;12.18;;;6.00;;
74677;SDS011;67324;56.326;43.982;2023-06-26T17:38:05;9.18;;;5.72;;
74677;SDS011;67324;56.326;43.982;2023-06-26T17:40:33;13.25;;;6.22;;
74677;SDS011;67324;56.326;43.982;2023-06-26T17:42:58;14.32;;;6.25;;
74677;SDS011;67324;56.326;43.982;2023-06-26T17:45:24;10.75;;;5.68;;
74677;SDS011;67324;56.326;43.982;2023-06-26T17:47:52;12.88;;;5.90;;
74677;SDS011;67324;56.326;43.982;2023-06-26T17:50:18;12.32;;;6.30;;
74677;SDS011;67324;56.326;43.982;2023-06-26T17:52:44;11.30;;;5.82;;
74677;SDS011;67324;56.326;43.982;2023-06-26T17:55:10;10.57;;;5.97;;
74677;SDS011;67324;56.326;43.982;2023-06-26T17:57:36;11.15;;;5.93;;
74677;SDS011;67324;56.326;43.982;2023-06-26T18:00:05;11.45;;;5.90;;
74677;SDS011;67324;56.326;43.982;2023-06-26T18:02:50;11.35;;;5.90;;
74677;SDS011;67324;56.326;43.982;2023-06-26T18:05:16;11.88;;;6.10;;
74677;SDS011;67324;56.326;43.982;2023-06-26T18:07:42;10.80;;;5.65;;
74677;SDS011;67324;56.326;43.982;2023-06-26T18:10:08;10.95;;;5.88;;
74677;SDS011;67324;56.326;43.982;2023-06-26T18:12:35;10.70;;;6.20;;
74677;SDS011;67324;56.326;43.982;2023-06-26T18:15:01;11.70;;;6.15;;
74677;SDS011;67324;56.326;43.982;2023-06-26T18:17:29;10.65;;;5.80;;
74677;SDS011;67324;56.326;43.982;2023-06-26T18:19:55;12.15;;;5.72;;
74677;SDS011;67324;56.326;43.982;2023-06-26T18:22:21;12.73;;;5.93;;
74677;SDS011;67324;56.326;43.982;2023-06-26T18:24:47;10.27;;;6.00;;
74677;SDS011;67324;56.326;43.982;2023-06-26T18:27:13;10.63;;;5.68;;
74677;SDS011;67324;56.326;43.982;2023-06-26T18:29:39;9.95;;;5.30;;
74677;SDS011;67324;56.326;43.982;2023-06-26T18:32:05;10.95;;;5.70;;
74677;SDS011;67324;56.326;43.982;2023-06-26T18:34:31;11.25;;;5.22;;
74677;SDS011;67324;56.326;43.982;2023-06-26T18:36:57;10.07;;;5.38;;
74677;SDS011;67324;56.326;43.982;2023-06-26T18:39:24;9.35;;;5.18;;
74677;SDS011;67324;56.326;43.982;2023-06-26T18:41:50;10.50;;;5.13;;
74677;SDS011;67324;56.326;43.982;2023-06-26T18:44:16;11.23;;;5.60;;
74677;SDS011;67324;56.326;43.982;2023-06-26T18:46:42;10.02;;;5.70;;
74677;SDS011;67324;56.326;43.982;2023-06-26T18:49:08;11.20;;;5.43;;
74677;SDS011;67324;56.326;43.982;2023-06-26T18:51:34;10.52;;;5.63;;
74677;SDS011;67324;56.326;43.982;2023-06-26T18:54:00;10.02;;;4.90;;
74677;SDS011;67324;56.326;43.982;2023-06-26T18:56:27;11.35;;;5.43;;
74677;SDS011;67324;56.326;43.982;2023-06-26T18:58:54;11.40;;;5.80;;
74677;SDS011;67324;56.326;43.982;2023-06-26T19:01:20;9.05;;;5.70;;
74677;SDS011;67324;56.326;43.982;2023-06-26T19:03:46;12.15;;;6.20;;
74677;SDS011;67324;56.326;43.982;2023-06-26T19:06:12;11.43;;;5.50;;
74677;SDS011;67324;56.326;43.982;2023-06-26T19:08:38;10.52;;;5.95;;
74677;SDS011;67324;56.326;43.982;2023-06-26T19:11:05;9.80;;;5.60;;
74677;SDS011;67324;56.326;43.982;2023-06-26T19:13:31;10.55;;;5.32;;
74677;SDS011;67324;56.326;43.982;2023-06-26T19:15:57;9.60;;;5.25;;
74677;SDS011;67324;56.326;43.982;2023-06-26T19:18:23;9.65;;;5.57;;
74677;SDS011;67324;56.326;43.982;2023-06-26T19:20:48;9.45;;;4.97;;
74677;SDS011;67324;56.326;43.982;2023-06-26T19:23:14;9.38;;;5.15;;
74677;SDS011;67324;56.326;43.982;2023-06-26T19:25:40;9.73;;;5.68;;
74677;SDS011;67324;56.326;43.982;2023-06-26T19:28:06;11.52;;;5.35;;
74677;SDS011;67324;56.326;43.982;2023-06-26T19:30:32;9.75;;;5.13;;
74677;SDS011;67324;56.326;43.982;2023-06-26T19:32:58;12.68;;;5.28;;
74677;SDS011;67324;56.326;43.982;2023-06-26T19:35:24;9.85;;;5.40;;
74677;SDS011;67324;56.326;43.982;2023-06-26T19:37:50;10.73;;;5.30;;
74677;SDS011;67324;56.326;43.982;2023-06-26T19:40:15;8.60;;;5.05;;
74677;SDS011;67324;56.326;43.982;2023-06-26T19:42:41;10.68;;;6.10;;
74677;SDS011;67324;56.326;43.982;2023-06-26T19:45:07;9.48;;;5.38;;
74677;SDS011;67324;56.326;43.982;2023-06-26T19:47:33;10.93;;;5.45;;
74677;SDS011;67324;56.326;43.982;2023-06-26T19:50:00;9.27;;;5.32;;
74677;SDS011;67324;56.326;43.982;2023-06-26T19:52:26;9.00;;;5.03;;
74677;SDS011;67324;56.326;43.982;2023-06-26T19:54:52;10.68;;;5.40;;
74677;SDS011;67324;56.326;43.982;2023-06-26T19:57:36;8.32;;;4.72;;
74677;SDS011;67324;56.326;43.982;2023-06-26T20:00:03;10.25;;;5.47;;
74677;SDS011;67324;56.326;43.982;2023-06-26T20:02:36;9.63;;;5.47;;
74677;SDS011;67324;56.326;43.982;2023-06-26T20:05:02;8.20;;;5.30;;
74677;SDS011;67324;56.326;43.982;2023-06-26T20:07:29;8.82;;;5.03;;
74677;SDS011;67324;56.326;43.982;2023-06-26T20:09:55;8.52;;;4.97;;
74677;SDS011;67324;56.326;43.982;2023-06-26T20:12:39;10.95;;;5.50;;
74677;SDS011;67324;56.326;43.982;2023-06-26T20:15:23;8.00;;;5.25;;
74677;SDS011;67324;56.326;43.982;2023-06-26T20:17:49;10.50;;;5.47;;
74677;SDS011;67324;56.326;43.982;2023-06-26T20:20:15;10.20;;;5.28;;
74677;SDS011;67324;56.326;43.982;2023-06-26T20:22:41;9.73;;;5.03;;
74677;SDS011;67324;56.326;43.982;2023-06-26T20:25:07;9.90;;;5.07;;
74677;SDS011;67324;56.326;43.982;2023-06-26T20:27:33;10.15;;;5.50;;
74677;SDS011;67324;56.326;43.982;2023-06-26T20:29:59;10.13;;;5.15;;
74677;SDS011;67324;56.326;43.982;2023-06-26T20:32:28;9.25;;;5.35;;
74677;SDS011;67324;56.326;43.982;2023-06-26T20:34:54;8.15;;;5.15;;
74677;SDS011;67324;56.326;43.982;2023-06-26T20:37:20;8.23;;;5.40;;
74677;SDS011;67324;56.326;43.982;2023-06-26T20:39:46;9.85;;;5.20;;
74677;SDS011;67324;56.326;43.982;2023-06-26T20:42:12;7.88;;;5.03;;
74677;SDS011;67324;56.326;43.982;2023-06-26T20:44:57;9.02;;;4.95;;
74677;SDS011;67324;56.326;43.982;2023-06-26T20:47:23;7.90;;;5.00;;
74677;SDS011;67324;56.326;43.982;2023-06-26T20:49:58;9.25;;;4.82;;
74677;SDS011;67324;56.326;43.982;2023-06-26T20:52:25;8.88;;;4.80;;
74677;SDS011;67324;56.326;43.982;2023-06-26T20:54:54;9.05;;;5.05;;
74677;SDS011;67324;56.326;43.982;2023-06-26T20:57:20;9.02;;;4.90;;
74677;SDS011;67324;56.326;43.982;2023-06-26T20:59:46;9.25;;;5.43;;
74677;SDS011;67324;56.326;43.982;2023-06-26T21:02:12;9.77;;;5.20;;
74677;SDS011;67324;56.326;43.982;2023-06-26T21:04:38;8.23;;;4.82;;
74677;SDS011;67324;56.326;43.982;2023-06-26T21:07:04;6.25;;;4.80;;
74677;SDS011;67324;56.326;43.982;2023-06-26T21:09:31;7.07;;;4.53;;
74677;SDS011;67324;56.326;43.982;2023-06-26T21:11:57;9.00;;;4.40;;
74677;SDS011;67324;56.326;43.982;2023-06-26T21:14:23;7.65;;;5.00;;
74677;SDS011;67324;56.326;43.982;2023-06-26T21:16:49;8.40;;;4.78;;
74677;SDS011;67324;56.326;43.982;2023-06-26T21:19:15;7.75;;;5.00;;
74677;SDS011;67324;56.326;43.982;2023-06-26T21:21:41;8.07;;;4.50;;
74677;SDS011;67324;56.326;43.982;2023-06-26T21:24:07;9.07;;;5.15;;
74677;SDS011;67324;56.326;43.982;2023-06-26T21:26:52;7.90;;;4.68;;
74677;SDS011;67324;56.326;43.982;2023-06-26T21:29:18;7.78;;;4.55;;
74677;SDS011;67324;56.326;43.982;2023-06-26T21:31:44;7.70;;;4.93;;
74677;SDS011;67324;56.326;43.982;2023-06-26T21:34:10;8.25;;;4.80;;
74677;SDS011;67324;56.326;43.982;2023-06-26T21:36:36;8.82;;;4.90;;
74677;SDS011;67324;56.326;43.982;2023-06-26T21:39:02;8.65;;;4.72;;
74677;SDS011;67324;56.326;43.982;2023-06-26T21:41:28;8.95;;;4.95;;
74677;SDS011;67324;56.326;43.982;2023-06-26T21:43:54;7.32;;;4.43;;
74677;SDS011;67324;56.326;43.982;2023-06-26T21:46:20;8.55;;;4.82;;
74677;SDS011;67324;56.326;43.982;2023-06-26T21:48:46;8.48;;;4.95;;
74677;SDS011;67324;56.326;43.982;2023-06-26T21:51:11;8.43;;;4.80;;
74677;SDS011;67324;56.326;43.982;2023-06-26T21:53:37;9.20;;;4.88;;
74677;SDS011;67324;56.326;43.982;2023-06-26T21:56:03;7.00;;;4.60;;
74677;SDS011;67324;56.326;43.982;2023-06-26T21:58:29;7.95;;;4.55;;
74677;SDS011;67324;56.326;43.982;2023-06-26T22:00:54;7.78;;;4.50;;
74677;SDS011;67324;56.326;43.982;2023-06-26T22:03:20;7.63;;;4.63;;
74677;SDS011;67324;56.326;43.982;2023-06-26T22:05:46;9.32;;;4.80;;
74677;SDS011;67324;56.326;43.982;2023-06-26T22:08:12;5.75;;;4.63;;
74677;SDS011;67324;56.326;43.982;2023-06-26T22:10:38;8.70;;;4.55;;
74677;SDS011;67324;56.326;43.982;2023-06-26T22:13:04;8.15;;;4.85;;
74677;SDS011;67324;56.326;43.982;2023-06-26T22:15:30;8.90;;;4.80;;
74677;SDS011;67324;56.326;43.982;2023-06-26T22:17:56;7.00;;;4.45;;
74677;SDS011;67324;56.326;43.982;2023-06-26T22:20:25;8.65;;;4.47;;
74677;SDS011;67324;56.326;43.982;2023-06-26T22:22:52;7.85;;;4.60;;
74677;SDS011;67324;56.326;43.982;2023-06-26T22:25:18;7.28;;;4.47;;
74677;SDS011;67324;56.326;43.982;2023-06-26T22:27:45;8.15;;;4.63;;
74677;SDS011;67324;56.326;43.982;2023-06-26T22:30:12;7.75;;;4.55;;
74677;SDS011;67324;56.326;43.982;2023-06-26T22:32:40;7.18;;;4.20;;
74677;SDS011;67324;56.326;43.982;2023-06-26T22:35:06;7.15;;;4.43;;
74677;SDS011;67324;56.326;43.982;2023-06-26T22:37:32;7.55;;;4.30;;
74677;SDS011;67324;56.326;43.982;2023-06-26T22:39:58;8.27;;;4.45;;
74677;SDS011;67324;56.326;43.982;2023-06-26T22:42:24;6.38;;;4.40;;
74677;SDS011;67324;56.326;43.982;2023-06-26T22:44:50;8.30;;;4.35;;
74677;SDS011;67324;56.326;43.982;2023-06-26T22:47:15;8.25;;;4.55;;
74677;SDS011;67324;56.326;43.982;2023-06-26T22:49:41;7.72;;;4.68;;
74677;SDS011;67324;56.326;43.982;2023-06-26T22:52:07;7.78;;;4.55;;
74677;SDS011;67324;56.326;43.982;2023-06-26T22:54:33;6.82;;;4.43;;
74677;SDS011;67324;56.326;43.982;2023-06-26T22:56:59;7.05;;;4.07;;
74677;SDS011;67324;56.326;43.982;2023-06-26T22:59:25;7.75;;;4.10;;
74677;SDS011;67324;56.326;43.982;2023-06-26T23:01:51;8.73;;;4.75;;
74677;SDS011;67324;56.326;43.982;2023-06-26T23:04:17;7.28;;;4.45;;
74677;SDS011;67324;56.326;43.982;2023-06-26T23:06:44;9.13;;;4.90;;
74677;SDS011;67324;56.326;43.982;2023-06-26T23:09:11;8.20;;;4.47;;
74677;SDS011;67324;56.326;43.982;2023-06-26T23:11:39;6.90;;;4.30;;
74677;SDS011;67324;56.326;43.982;2023-06-26T23:14:05;8.40;;;4.72;;
74677;SDS011;67324;56.326;43.982;2023-06-26T23:16:32;8.55;;;4.68;;
74677;SDS011;67324;56.326;43.982;2023-06-26T23:18:59;8.95;;;4.57;;
74677;SDS011;67324;56.326;43.982;2023-06-26T23:21:26;7.40;;;4.28;;
74677;SDS011;67324;56.326;43.982;2023-06-26T23:23:52;7.60;;;4.28;;
74677;SDS011;67324;56.326;43.982;2023-06-26T23:26:19;7.28;;;4.65;;
74677;SDS011;67324;56.326;43.982;2023-06-26T23:28:45;6.35;;;4.15;;
74677;SDS011;67324;56.326;43.982;2023-06-26T23:31:12;7.63;;;4.43;;
74677;SDS011;67324;56.326;43.982;2023-06-26T23:33:44;8.75;;;4.50;;
74677;SDS011;67324;56.326;43.982;2023-06-26T23:36:13;8.40;;;4.22;;
74677;SDS011;67324;56.326;43.982;2023-06-26T23:38:41;7.05;;;4.22;;
74677;SDS011;67324;56.326;43.982;2023-06-26T23:41:12;6.65;;;4.10;;
74677;SDS011;67324;56.326;43.982;2023-06-26T23:43:41;7.78;;;4.55;;
74677;SDS011;67324;56.326;43.982;2023-06-26T23:46:07;7.43;;;4.22;;
74677;SDS011;67324;56.326;43.982;2023-06-26T23:48:36;7.05;;;4.25;;
74677;SDS011;67324;56.326;43.982;2023-06-26T23:51:03;6.95;;;4.47;;
74677;SDS011;67324;56.326;43.982;2023-06-26T23:53:29;6.97;;;3.95;;
74677;SDS011;67324;56.326;43.982;2023-06-26T23:55:55;7.18;;;4.35;;
74677;SDS011;67324;56.326;43.982;2023-06-26T23:58:20;6.43;;;4.15;;
